Time;durP1;ratioP1;P1;durP2;ratioP2;P2;SDS_P1;SDS_P2;PMS_P1;PMS_P2;Temp;Humidity;BMP_temperature;BMP_pressure;BME280_temperature;BME280_humidity;BME280_pressure;Samples;Min_cycle;Max_cycle;Signal;HPM_P1;HPM_P2
2023/10/17 00:00:45;;;;;;;8.65;5.38;;;8.50;64.10;;;;;;5088346;28;20484;-71
2023/10/17 00:03:14;;;;;;;8.73;5.67;;;8.50;64.10;;;;;;5088785;28;20452;-71
2023/10/17 00:05:41;;;;;;;10.90;6.18;;;8.50;64.20;;;;;;5088319;28;20402;-71
2023/10/17 00:08:09;;;;;;;9.95;5.97;;;8.40;64.40;;;;;;5088622;28;20939;-71
2023/10/17 00:10:45;;;;;;;8.13;5.40;;;8.40;64.60;;;;;;5087017;28;20421;-71
2023/10/17 00:13:38;;;;;;;11.15;5.95;;;8.40;64.50;;;;;;5086652;28;20436;-71
2023/10/17 00:16:12;;;;;;;9.80;5.70;;;8.30;64.60;;;;;;5108524;27;20818;-71
2023/10/17 00:18:39;;;;;;;7.97;5.25;;;8.30;65.10;;;;;;5088096;28;20760;-71
2023/10/17 00:21:25;;;;;;;11.73;5.87;;;8.30;65.30;;;;;;5087064;28;20410;-71
2023/10/17 00:23:52;;;;;;;10.63;5.50;;;8.30;66.20;;;;;;5086206;28;20489;-71
2023/10/17 00:26:18;;;;;;;9.05;5.70;;;8.30;65.90;;;;;;5088547;28;20410;-71
2023/10/17 00:28:48;;;;;;;7.90;5.30;;;8.30;66.20;;;;;;5086967;28;20497;-71
2023/10/17 00:31:14;;;;;;;9.30;5.05;;;8.30;66.10;;;;;;5088095;28;20413;-71
2023/10/17 00:33:41;;;;;;;9.05;5.40;;;8.30;66.10;;;;;;5086345;28;20414;-71
2023/10/17 00:36:14;;;;;;;9.27;5.30;;;8.20;66.40;;;;;;5087866;28;20927;-71
2023/10/17 00:38:43;;;;;;;9.82;5.85;;;8.30;66.70;;;;;;5087318;28;21005;-71
2023/10/17 00:41:29;;;;;;;9.68;5.65;;;8.20;67.00;;;;;;5087954;28;20414;-71
2023/10/17 00:43:54;;;;;;;9.40;5.20;;;8.30;67.50;;;;;;5081102;28;20892;-71
2023/10/17 00:46:20;;;;;;;9.35;6.20;;;8.30;67.80;;;;;;5087938;28;20455;-71
2023/10/17 00:48:48;;;;;;;11.57;5.83;;;8.30;67.90;;;;;;5087402;28;20437;-71
2023/10/17 00:51:19;;;;;;;10.07;5.68;;;8.30;67.80;;;;;;5087074;28;20406;-71
2023/10/17 00:53:46;;;;;;;10.50;6.32;;;8.30;67.60;;;;;;5087913;28;20900;-71
2023/10/17 00:56:15;;;;;;;9.00;6.20;;;8.20;67.30;;;;;;5087762;28;20402;-71
2023/10/17 00:58:44;;;;;;;9.90;5.83;;;8.20;67.60;;;;;;5087540;28;20413;-71
2023/10/17 01:01:14;;;;;;;11.13;6.30;;;8.20;68.20;;;;;;5087370;28;20410;-71
2023/10/17 01:03:43;;;;;;;9.27;6.35;;;8.20;68.00;;;;;;5086495;28;21013;-71
2023/10/17 01:08:50;;;;;;;9.95;6.60;;;8.10;68.50;;;;;;5081419;28;20441;-71
2023/10/17 01:11:23;;;;;;;11.02;7.22;;;8.10;68.80;;;;;;5082630;28;20410;-71
2023/10/17 01:13:54;;;;;;;10.45;6.70;;;8.10;69.00;;;;;;5084281;28;20410;-71
2023/10/17 01:16:22;;;;;;;10.15;7.43;;;8.10;69.30;;;;;;5087912;28;20488;-71
2023/10/17 01:18:47;;;;;;;11.75;7.40;;;8.10;69.60;;;;;;5087175;28;20398;-71
2023/10/17 01:21:18;;;;;;;12.13;7.28;;;8.20;69.90;;;;;;5082135;28;20419;-71
2023/10/17 01:23:48;;;;;;;11.13;6.78;;;8.10;70.00;;;;;;5083758;28;20421;-71
2023/10/17 01:26:20;;;;;;;10.60;7.03;;;8.10;70.40;;;;;;5086725;28;20401;-71
2023/10/17 01:28:47;;;;;;;10.50;7.00;;;8.20;70.70;;;;;;5086925;28;20848;-71
2023/10/17 01:31:22;;;;;;;10.60;6.93;;;8.10;70.50;;;;;;5087547;28;20417;-71
2023/10/17 01:33:51;;;;;;;10.52;6.85;;;8.10;70.60;;;;;;5079590;28;20404;-71
2023/10/17 01:36:17;;;;;;;10.65;7.18;;;8.10;70.70;;;;;;5087014;28;20402;-71
2023/10/17 01:38:43;;;;;;;13.82;7.38;;;8.10;70.70;;;;;;5087384;28;20406;-71
2023/10/17 01:41:18;;;;;;;11.25;7.03;;;8.10;71.00;;;;;;5087813;28;20481;-71
2023/10/17 01:43:45;;;;;;;12.35;7.65;;;8.10;71.40;;;;;;5087284;28;20492;-71
2023/10/17 01:46:24;;;;;;;11.95;7.55;;;8.10;71.60;;;;;;5087664;28;20394;-71
2023/10/17 01:48:53;;;;;;;10.30;7.35;;;8.10;71.60;;;;;;5080682;28;20453;-71
2023/10/17 01:51:20;;;;;;;14.25;7.80;;;8.10;71.80;;;;;;5082024;28;20406;-71
2023/10/17 01:53:50;;;;;;;12.18;7.90;;;8.00;71.80;;;;;;5085709;28;20406;-71
2023/10/17 01:56:26;;;;;;;15.18;7.88;;;8.00;71.40;;;;;;5087157;28;20943;-71
2023/10/17 01:58:55;;;;;;;12.82;7.45;;;8.00;71.40;;;;;;5087407;28;20409;-71
2023/10/17 02:01:25;;;;;;;10.77;7.32;;;8.00;71.40;;;;;;5089512;28;20907;-71
2023/10/17 02:03:53;;;;;;;11.57;7.88;;;7.90;71.50;;;;;;5091135;28;20416;-71
2023/10/17 02:06:22;;;;;;;13.15;7.72;;;7.90;71.50;;;;;;5089183;28;20908;-71
2023/10/17 02:08:48;;;;;;;9.90;6.97;;;7.90;71.40;;;;;;5090421;28;20453;-71
2023/10/17 02:11:23;;;;;;;11.55;7.30;;;7.90;71.30;;;;;;5090806;28;20957;-71
2023/10/17 02:13:56;;;;;;;12.35;7.45;;;7.90;71.40;;;;;;5090322;28;20485;-71
2023/10/17 02:16:31;;;;;;;11.55;7.68;;;7.80;71.90;;;;;;5077020;28;20451;-71
2023/10/17 02:19:03;;;;;;;10.87;7.67;;;7.80;71.40;;;;;;5085847;28;20950;-71
2023/10/17 02:21:29;;;;;;;14.38;8.20;;;7.80;71.30;;;;;;5089063;28;20524;-71
2023/10/17 02:23:55;;;;;;;11.30;7.88;;;7.80;71.60;;;;;;5089160;28;20497;-71
2023/10/17 02:26:22;;;;;;;12.68;7.72;;;7.70;71.70;;;;;;5090597;28;20432;-71
2023/10/17 02:28:58;;;;;;;13.15;8.48;;;7.70;71.80;;;;;;5090065;28;20418;-71
2023/10/17 02:31:29;;;;;;;9.95;7.00;;;7.70;72.00;;;;;;5090447;28;20434;-70
2023/10/17 02:33:56;;;;;;;12.25;8.15;;;7.80;72.10;;;;;;5090349;28;20394;-70
2023/10/17 02:36:22;;;;;;;13.10;8.30;;;7.80;72.50;;;;;;5090284;28;20467;-70
2023/10/17 02:38:47;;;;;;;12.00;7.57;;;7.70;72.60;;;;;;5090273;28;20846;-70
2023/10/17 02:41:18;;;;;;;10.45;7.72;;;7.80;72.60;;;;;;5090338;28;20410;-70
2023/10/17 02:43:45;;;;;;;11.50;7.80;;;7.80;72.50;;;;;;5089619;28;20899;-71
2023/10/17 02:46:14;;;;;;;10.85;7.25;;;7.80;72.60;;;;;;5088794;28;20958;-70
2023/10/17 02:48:42;;;;;;;10.75;7.72;;;7.80;72.70;;;;;;5088531;28;20437;-70
2023/10/17 02:51:18;;;;;;;10.95;7.57;;;7.80;72.70;;;;;;5089809;28;20826;-70
2023/10/17 02:53:43;;;;;;;9.90;8.07;;;7.80;72.80;;;;;;5090062;28;20485;-70
2023/10/17 02:56:18;;;;;;;9.53;7.23;;;7.80;72.70;;;;;;5089911;28;20473;-70
2023/10/17 02:58:59;;;;;;;11.70;8.10;;;7.80;72.60;;;;;;5089408;28;21008;-70
2023/10/17 03:01:26;;;;;;;10.35;7.43;;;7.70;72.70;;;;;;5089953;28;20436;-70
2023/10/17 03:03:52;;;;;;;11.70;8.20;;;7.70;72.50;;;;;;5089670;28;20430;-70
2023/10/17 03:06:18;;;;;;;12.13;7.80;;;7.70;72.60;;;;;;5089771;28;20806;-70
2023/10/17 03:08:51;;;;;;;9.75;7.68;;;7.70;72.70;;;;;;5071297;28;20425;-70
2023/10/17 03:11:35;;;;;;;11.40;7.65;;;7.70;72.80;;;;;;5089893;28;20501;-71
2023/10/17 03:14:19;;;;;;;12.00;7.80;;;7.70;73.00;;;;;;5088207;28;20401;-71
2023/10/17 03:17:03;;;;;;;12.30;8.05;;;7.70;72.90;;;;;;5115104;27;20410;-71
2023/10/17 03:19:28;;;;;;;12.80;8.23;;;7.70;73.20;;;;;;5089198;28;20452;-70
2023/10/17 03:21:55;;;;;;;10.83;8.00;;;7.70;73.20;;;;;;5089575;28;20410;-70
2023/10/17 03:24:39;;;;;;;10.03;7.93;;;7.70;72.70;;;;;;5087986;28;20433;-70
2023/10/17 03:27:07;;;;;;;11.70;7.90;;;7.70;72.70;;;;;;5082638;28;20409;-70
2023/10/17 03:29:36;;;;;;;11.73;8.50;;;7.70;72.90;;;;;;5083181;28;20571;-70
2023/10/17 03:32:04;;;;;;;11.93;8.52;;;7.70;72.80;;;;;;5089432;28;20537;-70
2023/10/17 03:34:36;;;;;;;12.43;8.07;;;7.70;73.00;;;;;;5089318;28;20398;-70
2023/10/17 03:42:53;;;;;;;11.60;8.13;;;7.70;73.40;;;;;;5085225;28;20409;-70
2023/10/17 03:45:24;;;;;;;13.48;8.63;;;7.60;73.40;;;;;;5088926;28;20960;-71
2023/10/17 03:48:04;;;;;;;11.35;8.40;;;7.60;73.50;;;;;;5088870;28;20808;-70
2023/10/17 03:51:08;;;;;;;13.23;8.15;;;7.60;73.60;;;;;;5088526;28;20432;-71
2023/10/17 03:53:29;;;;;;;11.13;7.70;;;7.60;73.60;;;;;;5084482;28;21260;-70
2023/10/17 03:56:00;;;;;;;11.45;8.20;;;7.60;74.30;;;;;;5088654;28;20406;-70
2023/10/17 04:01:08;;;;;;;12.52;8.38;;;7.70;74.80;;;;;;5088805;28;20410;-70
2023/10/17 04:03:34;;;;;;;13.18;8.48;;;7.70;74.80;;;;;;5088112;28;20969;-70
2023/10/17 04:06:12;;;;;;;11.75;7.93;;;7.80;75.00;;;;;;5087348;28;20441;-70
2023/10/17 04:09:06;;;;;;;12.77;8.13;;;7.80;75.10;;;;;;5088201;28;20875;-70
2023/10/17 04:11:36;;;;;;;10.02;7.40;;;7.80;75.30;;;;;;5088223;28;20406;-70
2023/10/17 04:14:02;;;;;;;11.15;7.55;;;7.80;75.20;;;;;;5088373;28;20934;-70
2023/10/17 04:16:34;;;;;;;12.73;7.67;;;7.80;75.30;;;;;;5083034;28;20394;-70
2023/10/17 04:19:01;;;;;;;12.30;7.90;;;7.90;75.50;;;;;;5082569;28;20984;-70
2023/10/17 04:21:32;;;;;;;9.57;7.93;;;7.90;75.60;;;;;;5087855;28;20454;-70
2023/10/17 04:23:59;;;;;;;10.13;7.85;;;7.90;75.60;;;;;;5088065;28;20433;-70
2023/10/17 04:26:29;;;;;;;11.70;7.53;;;7.90;75.50;;;;;;5086788;28;20414;-70
2023/10/17 04:28:58;;;;;;;12.37;8.20;;;7.90;75.60;;;;;;5088284;28;20892;-71
2023/10/17 04:31:28;;;;;;;13.15;8.18;;;8.00;75.90;;;;;;5080105;28;20428;-70
2023/10/17 04:34:07;;;;;;;9.93;8.07;;;8.00;76.00;;;;;;5086762;28;20417;-70
2023/10/17 04:36:37;;;;;;;10.00;8.30;;;8.00;76.30;;;;;;5087862;28;20406;-70
2023/10/17 04:39:11;;;;;;;11.55;8.15;;;8.00;76.50;;;;;;5087480;28;20450;-70
2023/10/17 04:44:36;;;;;;;11.50;7.70;;;8.10;76.80;;;;;;5069653;28;20912;-71
2023/10/17 04:49:32;;;;;;;10.27;7.20;;;8.10;77.20;;;;;;5087677;28;20850;-71
2023/10/17 04:54:39;;;;;;;12.25;7.55;;;8.10;77.00;;;;;;5087723;28;20470;-71
2023/10/17 04:57:06;;;;;;;11.07;7.33;;;8.10;77.30;;;;;;5087896;28;20406;-71
2023/10/17 05:00:09;;;;;;;12.25;7.93;;;8.20;77.50;;;;;;5087364;28;20468;-71
2023/10/17 06:18:58;;;;;;;8.55;3.63;;;8.60;79.90;;;;;;5085253;28;20405;-71
2023/10/17 06:21:38;;;;;;;8.82;4.00;;;8.60;80.20;;;;;;5090078;28;20409;-71
2023/10/17 06:26:58;;;;;;;9.82;4.13;;;8.60;80.30;;;;;;5088924;28;21064;-71
2023/10/17 06:34:35;;;;;;;10.43;4.55;;;8.70;80.40;;;;;;5088916;28;20420;-71
2023/10/17 06:37:01;;;;;;;8.83;4.70;;;8.70;80.60;;;;;;5072564;28;20420;-71
2023/10/17 06:39:49;;;;;;;10.40;4.83;;;8.70;80.60;;;;;;5090739;28;20806;-71
2023/10/17 06:42:39;;;;;;;8.77;4.57;;;8.70;80.50;;;;;;5085096;28;20483;-71
2023/10/17 06:45:09;;;;;;;8.30;4.40;;;8.70;80.60;;;;;;5083405;28;20912;-71
2023/10/17 06:47:47;;;;;;;9.18;4.47;;;8.80;80.50;;;;;;5088798;28;20398;-71
2023/10/17 06:55:22;;;;;;;6.78;3.20;;;8.80;79.60;;;;;;5089495;28;20402;-71
2023/10/17 06:57:52;;;;;;;9.52;3.08;;;8.80;78.60;;;;;;5081571;28;20414;-71
2023/10/17 07:00:24;;;;;;;7.10;2.92;;;8.80;78.10;;;;;;5089968;28;20406;-71
2023/10/17 07:02:56;;;;;;;5.72;3.10;;;8.80;77.10;;;;;;5089984;28;20409;-71
2023/10/17 07:05:22;;;;;;;8.23;3.37;;;8.90;76.10;;;;;;5089698;28;20400;-71
2023/10/17 07:07:59;;;;;;;6.27;3.00;;;8.90;74.50;;;;;;5090360;28;20795;-71
2023/10/17 07:10:38;;;;;;;7.38;3.30;;;8.90;73.80;;;;;;5087906;28;20939;-71
2023/10/17 07:13:42;;;;;;;5.87;2.27;;;8.90;72.90;;;;;;5089827;28;20919;-71
2023/10/17 07:16:16;;;;;;;6.38;3.10;;;8.90;72.30;;;;;;5086931;28;20418;-71
2023/10/17 07:18:47;;;;;;;5.57;2.60;;;9.00;72.00;;;;;;5088933;28;20409;-71
2023/10/17 07:23:48;;;;;;;8.10;2.42;;;9.10;71.10;;;;;;5088246;28;20437;-71
2023/10/17 07:26:17;;;;;;;7.85;2.38;;;9.10;70.60;;;;;;5088666;28;20560;-71
2023/10/17 07:28:50;;;;;;;5.97;2.17;;;9.20;70.50;;;;;;5088417;28;20441;-71
2023/10/17 07:31:20;;;;;;;7.10;2.17;;;9.20;70.40;;;;;;5088905;28;20413;-71
2023/10/17 07:36:31;;;;;;;4.93;1.70;;;9.30;69.40;;;;;;5081443;28;20429;-71
2023/10/17 07:38:57;;;;;;;5.85;2.13;;;9.30;68.70;;;;;;5088872;28;20478;-71
2023/10/17 07:41:38;;;;;;;4.63;1.63;;;9.40;68.20;;;;;;5089280;28;21006;-71
2023/10/17 07:49:43;;;;;;;7.67;2.63;;;9.60;67.20;;;;;;5088607;28;20502;-71
2023/10/17 07:52:15;;;;;;;7.20;2.60;;;9.70;66.20;;;;;;5088823;28;20394;-71
2023/10/17 07:55:17;;;;;;;5.38;2.22;;;9.70;66.20;;;;;;5087284;28;20767;-71
2023/10/17 07:57:44;;;;;;;5.90;2.60;;;9.70;64.80;;;;;;5080306;28;20397;-71
2023/10/17 08:02:55;;;;;;;6.82;2.20;;;9.80;64.50;;;;;;5082300;28;21009;-71
2023/10/17 08:05:26;;;;;;;6.87;2.50;;;9.80;63.20;;;;;;5088344;28;20434;-71
2023/10/17 08:08:03;;;;;;;5.97;2.75;;;9.80;61.40;;;;;;5088831;28;20447;-71
2023/10/17 08:10:39;;;;;;;5.88;2.85;;;9.70;60.50;;;;;;5086750;28;20434;-71
2023/10/17 08:13:07;;;;;;;7.63;3.10;;;9.70;60.80;;;;;;5088325;28;20402;-71
2023/10/17 08:15:51;;;;;;;6.32;3.28;;;9.70;60.90;;;;;;5088586;28;20397;-71
2023/10/17 08:18:23;;;;;;;5.78;2.72;;;9.70;60.90;;;;;;5088188;28;20477;-71
2023/10/17 08:23:29;;;;;;;5.88;2.45;;;9.70;61.20;;;;;;5086437;28;20429;-71
2023/10/17 08:26:10;;;;;;;6.03;2.27;;;9.70;61.30;;;;;;5082658;28;20400;-71
2023/10/17 08:32:13;;;;;;;5.28;2.40;;;9.80;59.90;;;;;;5086916;28;20404;-71
2023/10/17 08:36:45;;;;;;;5.70;2.40;;;9.80;57.60;;;;;;5081151;28;20884;-71
2023/10/17 08:42:11;;;;;;;4.22;1.80;;;9.90;57.70;;;;;;5082662;28;20417;-71
2023/10/17 08:44:39;;;;;;;4.78;1.65;;;9.90;55.80;;;;;;5087861;28;20402;-71
2023/10/17 08:47:05;;;;;;;5.10;1.87;;;10.00;54.80;;;;;;5083386;28;20395;-71
2023/10/17 08:49:31;;;;;;;6.97;2.10;;;10.00;53.70;;;;;;5085099;28;20437;-71
2023/10/17 08:52:00;;;;;;;6.95;1.98;;;10.10;52.50;;;;;;5087856;28;20428;-71
2023/10/17 08:54:29;;;;;;;5.13;1.87;;;10.10;51.30;;;;;;5088042;28;20402;-71
2023/10/17 08:56:59;;;;;;;4.38;1.42;;;10.30;56.70;;;;;;5086246;28;20455;-71
2023/10/17 09:02:15;;;;;;;3.08;1.23;;;12.50;73.50;;;;;;5082863;28;20413;-71
2023/10/17 09:04:44;;;;;;;3.92;1.27;;;13.90;57.60;;;;;;5087791;28;20409;-71
2023/10/17 09:07:18;;;;;;;2.78;0.80;;;15.10;33.70;;;;;;5088042;28;20478;-71
2023/10/17 09:09:47;;;;;;;5.38;0.70;;;16.00;4.70;;;;;;5087295;28;20497;-72
2023/10/17 09:12:22;;;;;;;5.20;1.30;;;16.70;1.00;;;;;;5092283;28;20780;-72
2023/10/17 09:14:52;;;;;;;5.23;0.80;;;17.50;1.00;;;;;;5091386;28;20412;-72
2023/10/17 09:17:30;;;;;;;5.13;0.70;;;18.20;1.00;;;;;;5091899;28;20468;-72
2023/10/17 09:20:05;;;;;;;4.10;0.80;;;18.80;1.00;;;;;;5091127;28;20410;-72
2023/10/17 09:22:30;;;;;;;6.03;0.70;;;19.30;1.00;;;;;;5090956;28;20918;-72
2023/10/17 09:24:59;;;;;;;5.07;0.73;;;19.60;1.00;;;;;;5090541;28;20410;-72
2023/10/17 09:27:31;;;;;;;2.70;0.73;;;19.90;1.00;;;;;;5090478;28;20816;-72
2023/10/17 09:29:59;;;;;;;2.97;0.70;;;20.30;1.00;;;;;;5091007;28;20509;-72
2023/10/17 09:32:38;;;;;;;2.30;0.60;;;20.60;1.00;;;;;;5091805;28;20441;-72
2023/10/17 09:35:13;;;;;;;2.97;0.50;;;20.80;99.90;;;;;;5091160;28;20489;-72
2023/10/17 09:37:43;;;;;;;2.25;0.40;;;20.90;99.90;;;;;;5091640;28;20402;-72
2023/10/17 09:40:22;;;;;;;3.70;0.50;;;21.00;99.90;;;;;;5090667;28;20414;-72
2023/10/17 09:42:48;;;;;;;2.03;0.50;;;21.00;99.90;;;;;;5091110;28;20401;-72
2023/10/17 09:45:15;;;;;;;3.53;0.57;;;20.90;99.90;;;;;;5091775;28;20439;-72
2023/10/17 09:47:46;;;;;;;3.07;0.60;;;20.90;86.30;;;;;;5090925;28;20398;-72
2023/10/17 09:50:16;;;;;;;3.95;0.60;;;20.80;94.00;;;;;;5090925;28;20422;-72
2023/10/17 09:52:45;;;;;;;5.00;0.70;;;20.70;9.30;;;;;;5090244;28;20497;-72
2023/10/17 09:55:13;;;;;;;3.20;0.57;;;20.70;35.60;;;;;;5090789;28;20390;-72
2023/10/17 09:57:42;;;;;;;2.22;0.55;;;20.80;99.90;;;;;;5091168;28;20386;-72
2023/10/17 10:00:32;;;;;;;2.70;0.50;;;21.10;96.20;;;;;;5086146;28;20404;-72
2023/10/17 10:03:00;;;;;;;3.65;0.77;;;21.10;1.00;;;;;;5082000;28;20429;-72
2023/10/17 10:05:29;;;;;;;4.72;0.68;;;21.30;92.50;;;;;;5091246;28;20406;-72
2023/10/17 10:08:03;;;;;;;3.92;1.00;;;21.50;1.00;;;;;;5090560;28;20424;-72
2023/10/17 10:10:51;;;;;;;4.00;0.82;;;21.60;99.90;;;;;;5090709;28;20862;-72
2023/10/17 10:13:17;;;;;;;4.68;1.10;;;21.70;1.00;;;;;;5090672;28;20775;-72
2023/10/17 10:15:55;;;;;;;2.63;0.60;;;21.70;99.90;;;;;;5090830;28;20406;-72
2023/10/17 10:18:35;;;;;;;4.93;0.80;;;21.90;99.90;;;;;;5090605;28;20410;-73
2023/10/17 10:21:08;;;;;;;4.07;0.60;;;22.00;20.00;;;;;;5089439;28;20406;-72
2023/10/17 10:23:37;;;;;;;4.10;0.73;;;22.10;99.90;;;;;;5090369;28;20422;-72
2023/10/17 10:26:24;;;;;;;3.92;0.80;;;22.10;1.00;;;;;;5089475;28;20442;-72
2023/10/17 10:28:51;;;;;;;3.70;0.90;;;22.20;99.90;;;;;;5085771;28;20406;-72
2023/10/17 10:31:24;;;;;;;3.63;1.00;;;22.40;44.80;;;;;;5090446;28;20447;-72
2023/10/17 10:33:54;;;;;;;3.57;0.80;;;22.20;99.20;;;;;;5090680;28;20402;-72
2023/10/17 10:36:24;;;;;;;4.18;1.02;;;22.30;99.90;;;;;;5089789;28;20402;-72
2023/10/17 10:38:54;;;;;;;2.83;1.00;;;22.40;99.90;;;;;;5090472;28;20398;-72
2023/10/17 10:41:22;;;;;;;3.15;0.93;;;22.30;50.80;;;;;;5089755;28;20394;-72
2023/10/17 10:43:49;;;;;;;3.38;0.93;;;22.30;97.00;;;;;;5089839;28;20518;-72
2023/10/17 10:46:18;;;;;;;3.40;0.80;;;22.40;1.00;;;;;;5083998;28;20904;-72
2023/10/17 10:48:47;;;;;;;2.45;0.70;;;22.70;99.90;;;;;;5089666;28;20423;-72
2023/10/17 10:51:16;;;;;;;4.47;0.73;;;23.20;99.90;;;;;;5089963;28;20760;-72
2023/10/17 10:53:44;;;;;;;3.28;0.82;;;23.70;1.00;;;;;;5088917;28;20486;-72
2023/10/17 10:56:11;;;;;;;4.33;1.07;;;24.20;63.20;;;;;;5088963;28;20944;-72
2023/10/17 10:58:47;;;;;;;3.03;1.02;;;24.10;1.00;;;;;;5090178;28;20855;-72
2023/10/17 11:01:14;;;;;;;3.07;0.97;;;24.00;27.70;;;;;;5083303;28;20398;-72
2023/10/17 11:03:46;;;;;;;5.97;0.90;;;23.70;99.90;;;;;;5089598;28;20405;-72
2023/10/17 11:06:13;;;;;;;4.13;0.90;;;23.80;99.90;;;;;;5089546;28;20535;-72
2023/10/17 11:08:43;;;;;;;2.70;0.60;;;24.20;1.00;;;;;;5090069;28;20436;-72
2023/10/17 11:11:10;;;;;;;3.28;0.70;;;24.50;99.90;;;;;;5090308;28;20406;-73
2023/10/17 11:13:45;;;;;;;2.80;0.60;;;24.30;99.90;;;;;;5089192;28;20447;-72
2023/10/17 11:16:12;;;;;;;3.67;0.80;;;24.00;4.50;;;;;;5089355;28;20417;-72
2023/10/17 11:18:43;;;;;;;2.70;0.70;;;24.00;1.00;;;;;;5088953;28;20398;-72
2023/10/17 11:21:09;;;;;;;2.60;0.50;;;23.90;99.90;;;;;;5089248;28;20410;-72
2023/10/17 11:23:46;;;;;;;2.45;0.50;;;23.70;99.90;;;;;;5089272;28;20417;-72
2023/10/17 11:26:14;;;;;;;3.08;0.60;;;23.80;99.90;;;;;;5089458;28;20402;-72
2023/10/17 11:28:46;;;;;;;2.70;0.50;;;23.70;99.90;;;;;;5089232;28;21208;-72
2023/10/17 11:31:21;;;;;;;2.85;0.40;;;23.60;99.90;;;;;;5081951;28;20450;-72
2023/10/17 11:34:13;;;;;;;3.28;0.70;;;23.60;99.90;;;;;;5088365;28;20942;-72
2023/10/17 11:36:51;;;;;;;3.10;0.40;;;24.00;99.90;;;;;;5088800;28;20412;-72
2023/10/17 11:39:18;;;;;;;3.47;0.70;;;24.30;99.90;;;;;;5071148;28;20422;-72
2023/10/17 11:41:53;;;;;;;2.33;0.50;;;24.50;99.90;;;;;;5089117;28;20413;-72
2023/10/17 11:44:26;;;;;;;4.18;0.77;;;24.40;14.60;;;;;;5089306;28;20912;-72
2023/10/17 11:46:58;;;;;;;4.30;0.93;;;24.30;1.00;;;;;;5084714;28;20411;-72
2023/10/17 11:49:27;;;;;;;2.47;0.52;;;24.40;1.00;;;;;;5086827;28;20895;-72
2023/10/17 11:52:09;;;;;;;4.32;0.80;;;24.30;99.90;;;;;;5089011;28;20401;-72
2023/10/17 11:54:53;;;;;;;3.22;0.73;;;24.30;99.90;;;;;;5083412;28;20497;-72
2023/10/17 11:57:25;;;;;;;4.45;0.60;;;24.40;99.90;;;;;;5088394;28;20559;-72
2023/10/17 11:59:58;;;;;;;4.13;1.00;;;24.40;99.90;;;;;;5088639;28;20451;-72
2023/10/17 12:02:25;;;;;;;3.75;0.50;;;24.20;99.90;;;;;;5088996;28;20394;-72
2023/10/17 12:04:51;;;;;;;2.67;0.60;;;24.20;99.90;;;;;;5083013;28;20391;-72
2023/10/17 12:07:17;;;;;;;2.50;0.50;;;24.30;99.90;;;;;;5087063;28;20417;-72
2023/10/17 12:09:43;;;;;;;3.05;0.75;;;24.40;99.90;;;;;;5088358;28;20499;-72
2023/10/17 12:12:08;;;;;;;1.90;0.47;;;24.70;99.90;;;;;;5088720;28;20428;-72
2023/10/17 12:14:35;;;;;;;2.30;0.50;;;25.00;99.90;;;;;;5088258;28;20449;-72
2023/10/17 12:17:01;;;;;;;3.20;0.80;;;25.10;99.90;;;;;;5088311;28;20406;-73
2023/10/17 12:19:27;;;;;;;2.10;0.60;;;25.10;99.90;;;;;;5088458;28;20733;-72
2023/10/17 12:21:54;;;;;;;4.38;0.60;;;25.00;99.90;;;;;;5088332;28;20513;-72
2023/10/17 12:24:24;;;;;;;4.05;0.90;;;24.90;99.90;;;;;;5087151;28;20402;-72
2023/10/17 12:26:50;;;;;;;2.50;0.70;;;24.90;99.90;;;;;;5088119;28;20406;-72
2023/10/17 12:29:17;;;;;;;2.50;0.75;;;24.70;99.90;;;;;;5080342;28;20436;-72
2023/10/17 12:31:43;;;;;;;2.33;0.80;;;24.60;99.90;;;;;;5088019;28;20446;-72
2023/10/17 12:34:09;;;;;;;3.05;0.70;;;24.30;95.10;;;;;;5088366;28;20407;-72
2023/10/17 12:36:36;;;;;;;3.10;0.90;;;24.00;89.40;;;;;;5088226;28;20402;-72
2023/10/17 12:39:03;;;;;;;2.75;0.73;;;23.90;94.80;;;;;;5087902;28;20398;-72
2023/10/17 12:41:33;;;;;;;3.35;0.93;;;23.80;47.50;;;;;;5088015;28;20922;-72
2023/10/17 12:43:59;;;;;;;2.45;0.90;;;23.60;29.30;;;;;;5081642;28;20398;-72
2023/10/17 12:46:25;;;;;;;4.27;1.30;;;23.40;33.90;;;;;;5088262;28;20405;-72
2023/10/17 12:48:51;;;;;;;4.55;1.00;;;23.30;67.60;;;;;;5086842;28;20398;-72
2023/10/17 12:51:16;;;;;;;2.27;0.60;;;23.20;99.90;;;;;;5086696;28;20406;-72
2023/10/17 12:53:42;;;;;;;3.17;0.70;;;23.50;95.50;;;;;;5086754;28;20413;-73
2023/10/17 12:56:11;;;;;;;2.75;0.65;;;23.50;78.80;;;;;;5087805;28;20429;-72
2023/10/17 12:58:37;;;;;;;2.45;0.60;;;23.30;45.10;;;;;;5087338;28;20448;-71
2023/10/17 13:01:06;;;;;;;2.50;0.70;;;23.50;69.70;;;;;;5088264;28;20402;-72
2023/10/17 13:03:38;;;;;;;3.13;0.90;;;23.70;42.30;;;;;;5087759;28;20963;-72
2023/10/17 13:06:05;;;;;;;2.13;0.63;;;23.70;21.10;;;;;;5088239;28;20402;-72
2023/10/17 13:08:31;;;;;;;1.98;0.60;;;23.80;40.80;;;;;;5082543;28;20404;-72
2023/10/17 13:10:58;;;;;;;2.90;0.60;;;24.10;28.90;;;;;;5087789;28;20426;-72
2023/10/17 13:13:24;;;;;;;2.55;0.80;;;24.30;28.90;;;;;;5087656;28;20409;-72
2023/10/17 13:15:50;;;;;;;4.32;0.95;;;24.00;1.00;;;;;;5087790;28;20456;-72
2023/10/17 13:18:16;;;;;;;2.37;0.90;;;23.50;1.00;;;;;;5082207;28;20889;-72
2023/10/17 13:20:48;;;;;;;3.45;0.70;;;22.70;1.00;;;;;;5087663;28;20409;-72
2023/10/17 13:23:16;;;;;;;3.80;0.73;;;21.50;1.00;;;;;;5087172;28;20904;-72
2023/10/17 13:25:43;;;;;;;1.45;0.50;;;20.40;78.70;;;;;;5087607;28;20410;-72
2023/10/17 13:28:12;;;;;;;3.95;0.80;;;19.70;99.90;;;;;;5087810;28;20978;-72
2023/10/17 13:30:38;;;;;;;2.60;0.60;;;19.10;1.00;;;;;;5087427;28;20470;-71
2023/10/17 13:33:04;;;;;;;3.72;0.88;;;18.50;99.90;;;;;;5087334;28;20406;-72
2023/10/17 13:35:30;;;;;;;4.07;0.68;;;18.10;1.00;;;;;;5086177;28;20526;-72
2023/10/17 13:37:58;;;;;;;2.37;0.63;;;17.60;99.90;;;;;;5087396;28;20467;-71
2023/10/17 13:40:25;;;;;;;3.47;0.77;;;17.30;99.90;;;;;;5086656;28;20907;-72
2023/10/17 13:42:54;;;;;;;2.45;0.52;;;17.00;1.00;;;;;;5087590;28;20401;-71
2023/10/17 13:45:21;;;;;;;4.10;0.70;;;16.80;99.90;;;;;;5087611;28;20772;-71
2023/10/17 13:47:49;;;;;;;2.63;0.50;;;16.60;99.90;;;;;;5086937;28;20394;-71
2023/10/17 13:50:18;;;;;;;4.43;0.73;;;16.40;68.90;;;;;;5087482;28;20418;-71
2023/10/17 13:52:47;;;;;;;2.55;0.70;;;16.30;99.90;;;;;;5087250;28;20401;-71
2023/10/17 13:55:28;;;;;;;3.05;0.70;;;16.20;90.10;;;;;;5087921;28;20397;-71
2023/10/17 13:58:01;;;;;;;4.13;0.68;;;16.10;1.00;;;;;;5090451;28;20821;-72
2023/10/17 14:00:42;;;;;;;3.13;0.57;;;16.00;99.90;;;;;;5086216;28;20405;-71
2023/10/17 14:03:14;;;;;;;3.55;0.70;;;15.80;99.90;;;;;;5091229;28;20571;-71
2023/10/17 14:05:50;;;;;;;2.00;0.70;;;15.70;99.90;;;;;;5091060;28;20424;-71
2023/10/17 14:08:17;;;;;;;2.65;0.63;;;15.60;1.00;;;;;;5091045;28;20401;-71
2023/10/17 14:10:44;;;;;;;4.07;0.80;;;15.60;1.00;;;;;;5089434;28;20413;-72
2023/10/17 14:13:12;;;;;;;2.28;0.60;;;15.50;1.00;;;;;;5090834;28;20426;-71
2023/10/17 14:15:39;;;;;;;2.00;0.60;;;15.50;1.00;;;;;;5091036;28;20802;-72
2023/10/17 14:18:14;;;;;;;4.47;0.90;;;15.40;1.00;;;;;;5090711;28;20406;-72
2023/10/17 14:21:04;;;;;;;4.07;0.73;;;15.30;45.70;;;;;;5086324;28;20390;-71
2023/10/17 14:23:32;;;;;;;2.80;0.60;;;15.20;51.10;;;;;;5091197;28;20802;-71
2023/10/17 14:26:03;;;;;;;2.85;0.50;;;15.20;99.90;;;;;;5090773;28;20899;-71
2023/10/17 14:28:29;;;;;;;2.97;0.63;;;15.30;99.90;;;;;;5088899;28;20402;-71
2023/10/17 14:30:55;;;;;;;2.30;0.47;;;15.30;99.90;;;;;;5090463;28;20515;-71
2023/10/17 14:33:21;;;;;;;2.27;0.30;;;15.40;99.90;;;;;;5090879;28;20426;-71
2023/10/17 14:35:48;;;;;;;3.85;0.60;;;15.70;46.40;;;;;;5090749;28;20894;-71
2023/10/17 14:38:16;;;;;;;2.10;0.50;;;15.60;1.00;;;;;;5088748;28;20410;-72
2023/10/17 14:40:42;;;;;;;3.80;0.50;;;15.70;83.60;;;;;;5082852;28;20408;-71
2023/10/17 14:43:13;;;;;;;2.90;0.40;;;15.90;58.50;;;;;;5088743;28;20406;-71
2023/10/17 14:45:40;;;;;;;2.33;0.63;;;16.00;99.90;;;;;;5089974;28;20413;-71
2023/10/17 14:48:11;;;;;;;2.80;0.45;;;16.50;60.20;;;;;;5088704;28;20436;-71
2023/10/17 14:50:38;;;;;;;2.47;0.35;;;16.50;17.10;;;;;;5089947;28;20422;-71
2023/10/17 14:53:04;;;;;;;3.83;0.40;;;16.30;1.00;;;;;;5089688;28;20397;-71
2023/10/17 14:55:30;;;;;;;2.58;0.40;;;16.00;1.00;;;;;;5090354;28;20402;-71
2023/10/17 14:57:56;;;;;;;2.85;0.40;;;15.80;1.00;;;;;;5090161;28;20914;-71
2023/10/17 15:00:22;;;;;;;2.77;0.37;;;15.70;23.00;;;;;;5089881;28;20425;-72
2023/10/17 15:02:49;;;;;;;1.75;0.25;;;15.60;1.00;;;;;;5089909;28;20973;-74
2023/10/17 15:05:16;;;;;;;3.38;0.40;;;15.80;1.00;;;;;;5096016;28;20408;-72
2023/10/17 15:07:44;;;;;;;2.40;0.40;;;15.80;1.00;;;;;;5085599;28;20413;-72
2023/10/17 15:10:13;;;;;;;2.88;0.45;;;15.50;1.00;;;;;;5088860;28;20448;-71
2023/10/17 15:12:45;;;;;;;1.48;0.40;;;15.30;49.40;;;;;;5089195;28;20398;-71
2023/10/17 15:15:11;;;;;;;2.53;0.57;;;15.00;99.90;;;;;;5089441;28;20410;-71
2023/10/17 15:17:41;;;;;;;5.40;0.70;;;14.90;99.90;;;;;;5084618;28;20398;-71
2023/10/17 15:20:11;;;;;;;1.98;0.50;;;14.80;99.90;;;;;;5088644;28;20420;-71
2023/10/17 15:22:44;;;;;;;3.05;0.68;;;14.70;99.90;;;;;;5089369;28;20402;-71
2023/10/17 15:25:12;;;;;;;2.67;0.57;;;14.70;99.90;;;;;;5088920;28;20521;-71